Time;durP1;ratioP1;P1;durP2;ratioP2;P2;SDS_P1;SDS_P2;PMS_P1;PMS_P2;Temp;Humidity;BMP_temperature;BMP_pressure;BME280_temperature;BME280_humidity;BME280_pressure;Samples;Min_cycle;Max_cycle;Signal;HPM_P1;HPM_P2
2024/03/25 00:01:09;;;;;;;;;;;2.70;99.90;;;;;;5090013;28;19914;-71
2024/03/25 00:03:34;;;;;;;;;;;2.70;99.90;;;;;;5093421;28;19908;-73
2024/03/25 00:06:00;;;;;;;;;;;2.70;99.90;;;;;;5094046;28;19919;-73
2024/03/25 00:08:26;;;;;;;;;;;2.70;99.90;;;;;;5092754;28;20364;-74
2024/03/25 00:10:51;;;;;;;;;;;2.80;99.90;;;;;;5094157;28;20329;-73
2024/03/25 00:13:17;;;;;;;;;;;2.80;99.90;;;;;;5075601;28;19943;-73
2024/03/25 00:15:43;;;;;;;;;;;2.80;99.90;;;;;;5093952;28;19904;-74
2024/03/25 00:18:11;;;;;;;;;;;2.80;99.90;;;;;;5075698;28;19931;-72
2024/03/25 00:20:36;;;;;;;;;;;2.90;99.90;;;;;;5075620;28;19911;-73
2024/03/25 00:23:02;;;;;;;;;;;2.90;99.90;;;;;;5075596;28;19908;-73
2024/03/25 00:25:27;;;;;;;;;;;2.90;99.90;;;;;;5093578;28;20432;-73
2024/03/25 00:27:53;;;;;;;;;;;2.90;99.90;;;;;;5075672;28;19957;-73
2024/03/25 00:30:19;;;;;;;;;;;3.10;99.90;;;;;;5093525;28;19995;-73
2024/03/25 00:32:45;;;;;;;;;;;3.20;99.90;;;;;;5093466;28;20308;-74
2024/03/25 00:35:10;;;;;;;;;;;3.30;99.90;;;;;;5092448;28;20731;-74
2024/03/25 00:37:36;;;;;;;;;;;3.40;99.90;;;;;;5093847;28;19949;-74
2024/03/25 00:40:01;;;;;;;;;;;3.40;99.90;;;;;;5076410;28;19918;-73
2024/03/25 00:42:27;;;;;;;;;;;3.50;99.90;;;;;;5075676;28;19911;-73
2024/03/25 00:44:52;;;;;;;;;;;3.50;99.90;;;;;;5093249;28;20262;-73
2024/03/25 00:47:18;;;;;;;;;;;3.60;99.90;;;;;;5093260;28;19908;-73
2024/03/25 00:49:44;;;;;;;;;;;3.60;99.90;;;;;;5094036;28;19908;-73
2024/03/25 00:52:09;;;;;;;;;;;3.60;99.90;;;;;;5099774;28;20006;-74
2024/03/25 00:54:35;;;;;;;;;;;3.50;99.90;;;;;;5081923;28;19916;-74
2024/03/25 00:57:00;;;;;;;;;;;3.40;99.90;;;;;;5097313;28;19975;-73
2024/03/25 00:59:26;;;;;;;;;;;3.40;99.90;;;;;;5101063;28;19918;-74
2024/03/25 01:01:51;;;;;;;;;;;3.30;99.90;;;;;;5102098;28;19919;-74
2024/03/25 01:04:17;;;;;;;;;;;3.10;99.90;;;;;;5101309;28;19915;-73
2024/03/25 01:06:43;;;;;;;;;;;3.10;99.90;;;;;;5094170;28;19911;-74
2024/03/25 01:09:10;;;;;;;;;;;3.00;99.90;;;;;;5098817;28;19908;-73
2024/03/25 01:11:35;;;;;;;;;;;2.90;99.90;;;;;;5101748;28;19904;-74
2024/03/25 01:14:01;;;;;;;;;;;2.80;99.90;;;;;;5095321;28;20386;-73
2024/03/25 01:16:27;;;;;;;;;;;2.70;99.90;;;;;;5074964;28;19908;-73
2024/03/25 01:18:52;;;;;;;;;;;2.70;99.90;;;;;;5091668;28;19908;-73
2024/03/25 01:21:18;;;;;;;;;;;2.60;99.90;;;;;;5091467;28;20010;-73
2024/03/25 01:23:43;;;;;;;;;;;2.60;99.90;;;;;;5093152;28;20030;-73
2024/03/25 01:26:09;;;;;;;;;;;2.60;99.90;;;;;;5091207;28;19926;-73
2024/03/25 01:28:35;;;;;;;;;;;2.60;99.90;;;;;;5092555;28;19904;-73
2024/03/25 01:31:01;;;;;;;;;;;2.50;99.90;;;;;;5092552;28;19961;-73
2024/03/25 01:33:26;;;;;;;;;;;2.50;99.90;;;;;;5091365;28;19912;-72
2024/03/25 01:35:52;;;;;;;;;;;2.50;99.90;;;;;;5091054;28;19915;-73
2024/03/25 01:38:17;;;;;;;;;;;2.40;99.90;;;;;;5092759;28;19915;-73
2024/03/25 01:40:45;;;;;;;;;;;2.40;99.90;;;;;;5092492;28;19915;-73
2024/03/25 01:43:10;;;;;;;;;;;2.40;99.90;;;;;;5092241;28;19942;-72
2024/03/25 01:45:36;;;;;;;;;;;2.40;99.90;;;;;;5074097;28;19953;-73
2024/03/25 01:48:02;;;;;;;;;;;2.40;99.90;;;;;;5092193;28;19904;-73
2024/03/25 01:50:28;;;;;;;;;;;2.40;99.90;;;;;;5092291;28;19908;-74
2024/03/25 01:52:54;;;;;;;;;;;2.40;99.90;;;;;;5074012;28;19919;-74
2024/03/25 01:55:24;;;;;;;;;;;2.40;99.90;;;;;;5092069;28;19912;-74
2024/03/25 01:57:51;;;;;;;;;;;2.50;99.90;;;;;;5092144;28;19904;-73
2024/03/25 02:00:16;;;;;;;;;;;2.50;99.90;;;;;;5074002;28;19992;-73
2024/03/25 02:02:44;;;;;;;;;;;2.50;99.90;;;;;;5091841;28;20003;-73
2024/03/25 02:05:10;;;;;;;;;;;2.50;99.90;;;;;;5073667;28;19904;-73
2024/03/25 02:07:41;;;;;;;;;;;2.70;99.90;;;;;;5091920;28;19908;-74
2024/03/25 02:10:09;;;;;;;;;;;2.80;99.90;;;;;;5091757;28;20336;-74
2024/03/25 02:12:35;;;;;;;;;;;2.90;99.90;;;;;;5091454;28;19923;-74
2024/03/25 02:15:01;;;;;;;;;;;3.00;99.90;;;;;;5073591;28;19916;-74
2024/03/25 02:17:26;;;;;;;;;;;3.00;99.90;;;;;;5091693;28;19927;-74
2024/03/25 02:19:52;;;;;;;;;;;3.10;99.90;;;;;;5073185;28;20397;-74
2024/03/25 02:22:18;;;;;;;;;;;3.10;99.90;;;;;;5091543;28;19946;-74
2024/03/25 02:24:45;;;;;;;;;;;3.00;99.90;;;;;;5072595;28;19920;-73
2024/03/25 02:27:14;;;;;;;;;;;3.10;99.90;;;;;;5091377;28;19916;-73
2024/03/25 02:29:40;;;;;;;;;;;3.00;99.90;;;;;;5091446;28;19908;-74
2024/03/25 02:32:06;;;;;;;;;;;3.00;99.90;;;;;;5091303;28;19915;-74
2024/03/25 02:34:31;;;;;;;;;;;3.10;99.90;;;;;;5091126;28;19959;-73
2024/03/25 02:36:57;;;;;;;;;;;3.10;99.90;;;;;;5090216;28;19997;-74
2024/03/25 02:39:24;;;;;;;;;;;3.10;99.90;;;;;;5072931;28;19999;-73
2024/03/25 02:41:49;;;;;;;;;;;3.10;99.90;;;;;;5091117;28;20539;-73
2024/03/25 02:44:15;;;;;;;;;;;3.20;99.90;;;;;;5072983;28;20003;-72
2024/03/25 02:46:41;;;;;;;;;;;3.20;99.90;;;;;;5072827;28;19912;-73
2024/03/25 02:49:06;;;;;;;;;;;3.20;99.90;;;;;;5073025;28;19958;-74
2024/03/25 02:51:32;;;;;;;;;;;3.20;99.90;;;;;;5090907;28;19908;-73
2024/03/25 02:53:57;;;;;;;;;;;3.30;99.90;;;;;;5090799;28;19912;-74
2024/03/25 02:56:23;;;;;;;;;;;3.40;99.90;;;;;;5089642;28;19950;-73
2024/03/25 02:58:48;;;;;;;;;;;3.60;99.90;;;;;;5090811;28;19908;-72
2024/03/25 03:01:15;;;;;;;;;;;3.70;99.90;;;;;;5072568;28;19915;-73
2024/03/25 03:03:41;;;;;;;;;;;3.80;99.90;;;;;;5090737;28;20280;-75
2024/03/25 03:06:06;;;;;;;;;;;3.80;99.90;;;;;;5090399;28;20392;-73
2024/03/25 03:08:32;;;;;;;;;;;3.90;99.90;;;;;;5090636;28;20265;-73
2024/03/25 03:10:57;;;;;;;;;;;4.00;99.90;;;;;;5072649;28;19953;-73
2024/03/25 03:13:23;;;;;;;;;;;4.00;99.90;;;;;;5089249;28;19922;-73
2024/03/25 03:15:48;;;;;;;;;;;4.00;99.90;;;;;;5090597;28;20311;-73
2024/03/25 03:18:14;;;;;;;;;;;3.90;99.90;;;;;;5090594;28;20026;-73
2024/03/25 03:20:39;;;;;;;;;;;3.90;99.90;;;;;;5090854;28;19995;-73
2024/03/25 03:23:05;;;;;;;;;;;3.90;99.90;;;;;;5090059;28;20394;-73
2024/03/25 03:25:30;;;;;;;;;;;4.00;99.90;;;;;;5090266;28;19962;-73
2024/03/25 03:27:56;;;;;;;;;;;3.90;99.90;;;;;;5090421;28;20301;-73
2024/03/25 03:30:22;;;;;;;;;;;4.00;99.90;;;;;;5090402;28;19908;-73
2024/03/25 03:32:47;;;;;;;;;;;3.90;99.90;;;;;;5090171;28;19908;-73
2024/03/25 03:35:13;;;;;;;;;;;3.90;99.90;;;;;;5090210;28;20002;-73
2024/03/25 03:37:38;;;;;;;;;;;3.90;99.90;;;;;;5071475;28;19908;-74
2024/03/25 03:40:07;;;;;;;;;;;3.90;99.90;;;;;;5071746;28;19903;-73
2024/03/25 03:42:32;;;;;;;;;;;3.80;99.90;;;;;;5090259;28;19911;-74
2024/03/25 03:44:58;;;;;;;;;;;3.80;99.90;;;;;;5072126;28;20304;-73
2024/03/25 03:47:23;;;;;;;;;;;3.80;99.90;;;;;;5071921;28;19915;-72
2024/03/25 03:49:49;;;;;;;;;;;3.70;99.90;;;;;;5072289;28;20361;-73
2024/03/25 03:52:14;;;;;;;;;;;3.70;99.90;;;;;;5072852;28;19915;-73
2024/03/25 03:54:40;;;;;;;;;;;3.70;99.90;;;;;;5072255;28;19926;-73
2024/03/25 03:57:06;;;;;;;;;;;3.60;99.90;;;;;;5072270;28;19911;-73
2024/03/25 03:59:31;;;;;;;;;;;3.60;99.90;;;;;;5090641;28;19927;-73
2024/03/25 04:01:57;;;;;;;;;;;3.60;99.90;;;;;;5072242;28;19908;-73
2024/03/25 04:04:23;;;;;;;;;;;3.50;99.90;;;;;;5072653;28;19947;-74
2024/03/25 04:06:48;;;;;;;;;;;3.40;99.90;;;;;;5094930;28;19915;-73
2024/03/25 04:09:14;;;;;;;;;;;3.50;99.90;;;;;;5078624;28;19918;-74
2024/03/25 04:11:39;;;;;;;;;;;3.40;99.90;;;;;;5091437;28;19911;-73
2024/03/25 04:14:05;;;;;;;;;;;3.50;99.90;;;;;;5090025;28;19985;-72
2024/03/25 04:16:31;;;;;;;;;;;3.40;99.90;;;;;;5088590;28;19912;-72
2024/03/25 04:18:57;;;;;;;;;;;3.50;99.90;;;;;;5089957;28;19915;-73
2024/03/25 04:21:22;;;;;;;;;;;3.50;99.90;;;;;;5071600;28;19908;-73
2024/03/25 04:23:49;;;;;;;;;;;3.60;99.90;;;;;;5071767;28;19915;-74
2024/03/25 04:26:18;;;;;;;;;;;3.50;99.90;;;;;;5088725;28;20288;-74
2024/03/25 04:28:43;;;;;;;;;;;3.50;99.90;;;;;;5088359;28;20037;-73
2024/03/25 04:31:09;;;;;;;;;;;3.40;99.90;;;;;;5088323;28;19991;-74
2024/03/25 04:33:35;;;;;;;;;;;3.50;99.90;;;;;;5088643;28;19908;-73
2024/03/25 04:36:00;;;;;;;;;;;3.40;99.90;;;;;;5093537;28;19915;-73
2024/03/25 04:38:26;;;;;;;;;;;3.50;99.90;;;;;;5097344;28;19904;-73
2024/03/25 04:40:51;;;;;;;;;;;3.50;99.90;;;;;;5093041;28;19908;-73
2024/03/25 04:43:17;;;;;;;;;;;3.50;99.90;;;;;;5094452;28;19911;-74
2024/03/25 04:45:43;;;;;;;;;;;3.40;99.90;;;;;;5098587;28;20323;-74
2024/03/25 04:48:08;;;;;;;;;;;3.40;99.90;;;;;;5079835;28;20379;-74
2024/03/25 04:50:35;;;;;;;;;;;3.50;99.90;;;;;;5075652;28;19995;-73
2024/03/25 04:53:00;;;;;;;;;;;3.40;99.90;;;;;;5093641;28;20023;-74
2024/03/25 04:55:26;;;;;;;;;;;3.40;99.90;;;;;;5093464;28;19904;-73
2024/03/25 04:57:52;;;;;;;;;;;3.40;99.90;;;;;;5093200;28;20258;-74
2024/03/25 05:00:17;;;;;;;;;;;3.40;99.90;;;;;;5074764;28;19908;-73
2024/03/25 05:02:43;;;;;;;;;;;3.30;99.90;;;;;;5093098;28;19935;-73
2024/03/25 05:05:09;;;;;;;;;;;3.30;99.90;;;;;;5075045;28;19904;-73
2024/03/25 05:07:35;;;;;;;;;;;3.30;99.90;;;;;;5091906;28;19908;-73
2024/03/25 05:10:00;;;;;;;;;;;3.30;99.90;;;;;;5075125;28;19915;-73
2024/03/25 05:12:30;;;;;;;;;;;3.40;99.90;;;;;;5074906;28;19914;-74
2024/03/25 05:14:56;;;;;;;;;;;3.40;99.90;;;;;;5092749;28;20303;-73
2024/03/25 05:17:21;;;;;;;;;;;3.50;99.90;;;;;;5074691;28;19912;-74
2024/03/25 05:19:47;;;;;;;;;;;3.50;99.90;;;;;;5093188;28;19951;-73
2024/03/25 05:22:12;;;;;;;;;;;3.50;99.90;;;;;;5094217;28;19962;-74
2024/03/25 05:24:38;;;;;;;;;;;3.60;99.90;;;;;;5094002;28;19916;-74
2024/03/25 05:27:03;;;;;;;;;;;3.60;99.90;;;;;;5092934;28;19961;-73
2024/03/25 05:29:29;;;;;;;;;;;3.70;99.90;;;;;;5092536;28;19908;-74
2024/03/25 05:31:58;;;;;;;;;;;3.80;99.90;;;;;;5092438;28;19964;-73
2024/03/25 05:34:24;;;;;;;;;;;4.10;99.90;;;;;;5092516;28;19977;-73
2024/03/25 05:36:50;;;;;;;;;;;4.30;99.90;;;;;;5092618;28;20292;-73
2024/03/25 05:39:15;;;;;;;;;;;4.60;99.90;;;;;;5074154;28;19904;-74
2024/03/25 05:41:41;;;;;;;;;;;5.10;99.90;;;;;;5092046;28;19919;-73
2024/03/25 05:44:06;;;;;;;;;;;6.10;99.90;;;;;;5092275;28;19911;-74
2024/03/25 05:46:32;;;;;;;;;;;7.20;99.90;;;;;;5074442;28;20253;-74
2024/03/25 05:49:00;;;;;;;;;;;8.30;99.90;;;;;;5092154;28;20384;-74
2024/03/25 05:51:26;;;;;;;;;;;9.30;99.90;;;;;;5091692;28;19908;-74
2024/03/25 05:53:51;;;;;;;;;;;9.90;99.90;;;;;;5091768;28;19999;-74
2024/03/25 05:56:17;;;;;;;;;;;10.30;96.90;;;;;;5092030;28;19942;-73
2024/03/25 05:58:42;;;;;;;;;;;10.70;96.00;;;;;;5091966;28;19951;-75
2024/03/25 06:01:08;;;;;;;;;;;11.20;92.60;;;;;;5091293;28;20006;-74
2024/03/25 06:03:33;;;;;;;;;;;11.50;90.70;;;;;;5073671;28;19961;-74
2024/03/25 06:05:59;;;;;;;;;;;11.70;86.90;;;;;;5090477;28;19904;-73
2024/03/25 06:08:25;;;;;;;;;;;11.60;84.30;;;;;;5090178;28;19911;-74
2024/03/25 06:10:51;;;;;;;;;;;11.40;84.80;;;;;;5091486;28;19951;-75
2024/03/25 06:13:16;;;;;;;;;;;11.20;84.30;;;;;;5090029;28;19969;-75
2024/03/25 06:15:42;;;;;;;;;;;11.10;85.40;;;;;;5090231;28;20383;-74
2024/03/25 06:18:07;;;;;;;;;;;11.10;84.10;;;;;;5091682;28;19921;-75
2024/03/25 06:20:33;;;;;;;;;;;11.10;84.80;;;;;;5091185;28;19908;-74
2024/03/25 06:22:58;;;;;;;;;;;11.40;84.80;;;;;;5091179;28;19911;-74
2024/03/25 06:25:24;;;;;;;;;;;11.70;82.80;;;;;;5089576;28;20388;-74
2024/03/25 06:27:50;;;;;;;;;;;11.90;81.00;;;;;;5072682;28;19995;-74
2024/03/25 06:35:43;;;;;;;;;;;12.30;77.90;;;;;;5091554;28;19915;-74
2024/03/25 06:38:09;;;;;;;;;;;12.20;75.30;;;;;;5072830;28;19908;-74
2024/03/25 06:40:35;;;;;;;;;;;12.00;76.10;;;;;;5072652;28;20384;-74
2024/03/25 06:43:01;;;;;;;;;;;11.80;76.90;;;;;;5089605;28;19912;-74
2024/03/25 06:45:26;;;;;;;;;;;11.90;75.50;;;;;;5091115;28;19907;-75
2024/03/25 06:47:52;;;;;;;;;;;11.60;75.60;;;;;;5090790;28;19908;-73
2024/03/25 06:50:17;;;;;;;;;;;11.10;77.30;;;;;;5090985;28;19961;-74
2024/03/25 06:52:43;;;;;;;;;;;10.60;79.50;;;;;;5072339;28;19915;-75
2024/03/25 06:55:08;;;;;;;;;;;10.00;81.80;;;;;;5090682;28;20489;-73
2024/03/25 06:57:34;;;;;;;;;;;9.60;83.50;;;;;;5072626;28;19908;-71
2024/03/25 06:59:59;;;;;;;;;;;9.30;85.60;;;;;;5091116;28;20287;-72
2024/03/25 07:02:25;;;;;;;;;;;9.20;86.90;;;;;;5090925;28;19914;-72
2024/03/25 07:04:50;;;;;;;;;;;9.10;87.60;;;;;;5090695;28;19952;-71
2024/03/25 07:07:16;;;;;;;;;;;9.10;88.40;;;;;;5089463;28;20261;-71
2024/03/25 07:09:41;;;;;;;;;;;9.20;90.10;;;;;;5072442;28;19904;-73
2024/03/25 07:12:07;;;;;;;;;;;9.60;88.30;;;;;;5072265;28;19929;-75
2024/03/25 07:14:33;;;;;;;;;;;10.00;87.00;;;;;;5090471;28;19916;-74
2024/03/25 07:16:59;;;;;;;;;;;10.20;86.60;;;;;;5090613;28;20002;-73
2024/03/25 07:19:24;;;;;;;;;;;10.80;85.10;;;;;;5090328;28;19911;-74
2024/03/25 07:21:50;;;;;;;;;;;11.10;82.20;;;;;;5072040;28;19930;-74
2024/03/25 07:24:15;;;;;;;;;;;11.20;80.60;;;;;;5090168;28;20380;-73
2024/03/25 07:26:41;;;;;;;;;;;11.10;80.50;;;;;;5090079;28;19965;-72
2024/03/25 07:29:07;;;;;;;;;;;11.60;79.30;;;;;;5088769;28;19914;-75
2024/03/25 07:31:32;;;;;;;;;;;11.90;76.70;;;;;;5072010;28;19908;-73
2024/03/25 07:33:58;;;;;;;;;;;12.10;75.80;;;;;;5072042;28;19916;-74
2024/03/25 07:36:24;;;;;;;;;;;12.20;75.80;;;;;;5071994;28;20376;-74
2024/03/25 07:38:49;;;;;;;;;;;12.60;74.90;;;;;;5090394;28;19908;-71
2024/03/25 07:41:15;;;;;;;;;;;13.20;72.20;;;;;;5071812;28;19907;-72
2024/03/25 07:43:41;;;;;;;;;;;13.90;69.20;;;;;;5072036;28;19912;-72
2024/03/25 07:46:06;;;;;;;;;;;14.80;66.40;;;;;;5090081;28;20495;-72
2024/03/25 07:48:32;;;;;;;;;;;15.80;62.20;;;;;;5071867;28;19908;-73
2024/03/25 07:50:57;;;;;;;;;;;16.60;57.80;;;;;;5089958;28;19908;-74
2024/03/25 07:53:23;;;;;;;;;;;16.80;55.10;;;;;;5089870;28;19912;-74
2024/03/25 07:55:48;;;;;;;;;;;17.20;52.70;;;;;;5088737;28;19908;-75
2024/03/25 07:58:14;;;;;;;;;;;17.50;50.80;;;;;;5066119;28;19908;-73
2024/03/25 08:00:39;;;;;;;;;;;18.00;49.30;;;;;;5088344;28;19904;-74
2024/03/25 08:03:05;;;;;;;;;;;18.30;47.50;;;;;;5071043;28;20395;-75
2024/03/25 08:05:30;;;;;;;;;;;18.20;47.10;;;;;;5088504;28;19908;-73
2024/03/25 08:07:56;;;;;;;;;;;17.20;47.10;;;;;;5088240;28;19908;-73
2024/03/25 08:10:21;;;;;;;;;;;16.30;48.40;;;;;;5088545;28;19957;-72
2024/03/25 08:12:48;;;;;;;;;;;15.40;51.70;;;;;;5071476;28;20399;-71
2024/03/25 08:15:13;;;;;;;;;;;14.70;53.80;;;;;;5090001;28;19915;-73
2024/03/25 08:17:39;;;;;;;;;;;14.20;56.10;;;;;;5089889;28;19904;-72
2024/03/25 08:20:05;;;;;;;;;;;14.50;55.80;;;;;;5089829;28;19947;-72
2024/03/25 08:22:30;;;;;;;;;;;14.60;55.30;;;;;;5071773;28;20003;-72
2024/03/25 08:24:56;;;;;;;;;;;14.50;55.00;;;;;;5093672;28;19923;-71
2024/03/25 08:27:21;;;;;;;;;;;14.20;55.30;;;;;;5075189;28;19918;-72
2024/03/25 08:29:48;;;;;;;;;;;14.10;55.40;;;;;;5093782;28;19911;-73
2024/03/25 08:32:14;;;;;;;;;;;13.80;56.60;;;;;;5075221;28;19904;-73
2024/03/25 08:34:39;;;;;;;;;;;13.40;58.10;;;;;;5093557;28;19937;-74
2024/03/25 08:37:05;;;;;;;;;;;12.70;59.50;;;;;;5075231;28;19904;-75
2024/03/25 08:39:30;;;;;;;;;;;12.60;60.50;;;;;;5093362;28;20603;-75
2024/03/25 08:41:56;;;;;;;;;;;12.90;61.60;;;;;;5074734;28;19904;-72
2024/03/25 08:44:21;;;;;;;;;;;13.30;60.40;;;;;;5093454;28;19912;-72
2024/03/25 08:46:47;;;;;;;;;;;13.40;58.40;;;;;;5075050;28;20086;-72
2024/03/25 08:49:12;;;;;;;;;;;13.10;58.30;;;;;;5075008;28;19911;-75
2024/03/25 08:51:38;;;;;;;;;;;13.10;58.10;;;;;;5093285;28;19998;-75
2024/03/25 08:54:03;;;;;;;;;;;12.80;58.60;;;;;;5074987;28;19911;-75
2024/03/25 08:56:29;;;;;;;;;;;12.50;59.50;;;;;;5093164;28;19914;-74
2024/03/25 08:58:54;;;;;;;;;;;12.20;60.30;;;;;;5074914;28;20047;-74
2024/03/25 09:01:21;;;;;;;;;;;12.20;60.20;;;;;;5074886;28;19943;-74
2024/03/25 09:03:48;;;;;;;;;;;12.00;60.30;;;;;;5093254;28;20506;-74
2024/03/25 09:06:13;;;;;;;;;;;11.90;60.50;;;;;;5093036;28;19990;-74
2024/03/25 09:11:25;;;;;;;;;;;11.60;61.50;;;;;;5093185;28;19910;-74
2024/03/25 09:13:50;;;;;;;;;;;11.60;62.00;;;;;;5092828;28;19919;-74
2024/03/25 09:16:16;;;;;;;;;;;11.40;62.50;;;;;;5074717;28;20376;-74
2024/03/25 09:18:41;;;;;;;;;;;11.40;62.70;;;;;;5091657;28;19904;-74
2024/03/25 09:21:07;;;;;;;;;;;11.40;62.20;;;;;;5092767;28;19934;-73
2024/03/25 09:23:32;;;;;;;;;;;11.50;62.80;;;;;;5092551;28;20406;-74
2024/03/25 09:25:58;;;;;;;;;;;11.90;63.10;;;;;;5091185;28;19970;-74
2024/03/25 09:28:24;;;;;;;;;;;12.90;61.20;;;;;;5074303;28;19954;-75
2024/03/25 09:30:49;;;;;;;;;;;14.00;58.20;;;;;;5092534;28;19908;-75
2024/03/25 09:33:15;;;;;;;;;;;15.00;55.90;;;;;;5074299;28;19912;-75
2024/03/25 09:35:40;;;;;;;;;;;15.90;53.80;;;;;;5073182;28;19912;-75
2024/03/25 09:38:06;;;;;;;;;;;16.30;51.60;;;;;;5092474;28;19904;-74
2024/03/25 09:40:32;;;;;;;;;;;16.70;48.20;;;;;;5092316;28;20007;-74
2024/03/25 09:42:57;;;;;;;;;;;16.90;46.10;;;;;;5074158;28;19926;-75
2024/03/25 09:45:27;;;;;;;;;;;16.30;46.00;;;;;;5092303;28;19907;-74
2024/03/25 09:47:54;;;;;;;;;;;15.50;47.60;;;;;;5092232;28;20306;-74
2024/03/25 09:50:20;;;;;;;;;;;14.70;50.20;;;;;;5092422;28;20379;-75
2024/03/25 09:52:49;;;;;;;;;;;14.40;49.30;;;;;;5092332;28;19904;-75
2024/03/25 09:55:15;;;;;;;;;;;14.10;49.80;;;;;;5074036;28;19965;-74
2024/03/25 09:57:42;;;;;;;;;;;13.80;50.60;;;;;;5090498;28;20666;-74
2024/03/25 10:00:10;;;;;;;;;;;13.40;51.90;;;;;;5073662;28;19911;-74
2024/03/25 10:02:37;;;;;;;;;;;13.10;53.90;;;;;;5091713;28;20356;-73
2024/03/25 10:05:03;;;;;;;;;;;13.10;55.20;;;;;;5073639;28;19947;-74
2024/03/25 10:07:28;;;;;;;;;;;13.50;54.00;;;;;;5073404;28;19958;-73
2024/03/25 10:09:54;;;;;;;;;;;13.80;53.70;;;;;;5090681;28;19911;-74
2024/03/25 10:12:19;;;;;;;;;;;14.10;53.20;;;;;;5091769;28;19904;-74
2024/03/25 10:14:45;;;;;;;;;;;14.30;52.20;;;;;;5073201;28;20338;-75
2024/03/25 10:17:11;;;;;;;;;;;14.30;52.10;;;;;;5091540;28;19908;-73
2024/03/25 10:19:37;;;;;;;;;;;14.50;50.90;;;;;;5073270;28;20081;-75
2024/03/25 10:22:04;;;;;;;;;;;14.90;51.10;;;;;;5089944;28;19953;-75
2024/03/25 10:24:39;;;;;;;;;;;15.70;50.40;;;;;;5073074;28;20431;-73
2024/03/25 10:27:05;;;;;;;;;;;16.70;45.80;;;;;;5073340;28;19951;-75
2024/03/25 10:29:31;;;;;;;;;;;17.30;43.30;;;;;;5091168;28;19908;-75
2024/03/25 10:32:00;;;;;;;;;;;17.90;41.30;;;;;;5089874;28;19915;-74
2024/03/25 10:34:25;;;;;;;;;;;18.00;39.70;;;;;;5072923;28;20292;-75
2024/03/25 10:36:55;;;;;;;;;;;17.60;41.00;;;;;;5091363;28;19912;-74
2024/03/25 10:39:24;;;;;;;;;;;16.70;47.60;;;;;;5091254;28;20010;-75
2024/03/25 10:41:50;;;;;;;;;;;15.30;51.70;;;;;;5072657;28;19915;-74
2024/03/25 10:44:16;;;;;;;;;;;14.30;53.90;;;;;;5073105;28;19908;-74
2024/03/25 10:46:43;;;;;;;;;;;13.70;54.30;;;;;;5090889;28;20026;-74
2024/03/25 10:49:21;;;;;;;;;;;13.20;56.20;;;;;;5090999;28;19910;-74
2024/03/25 10:51:48;;;;;;;;;;;13.00;58.40;;;;;;5091018;28;19903;-73
2024/03/25 10:54:14;;;;;;;;;;;13.10;59.40;;;;;;5090973;28;20373;-74
2024/03/25 10:56:39;;;;;;;;;;;13.30;59.30;;;;;;5072663;28;19915;-74
2024/03/25 10:59:05;;;;;;;;;;;13.40;55.90;;;;;;5090715;28;20338;-74
2024/03/25 11:01:31;;;;;;;;;;;13.50;54.90;;;;;;5090645;28;19912;-73
2024/03/25 11:03:57;;;;;;;;;;;13.40;52.70;;;;;;5090790;28;20410;-73
2024/03/25 11:06:23;;;;;;;;;;;13.30;52.10;;;;;;5089128;28;19911;-73
2024/03/25 11:08:58;;;;;;;;;;;13.20;51.80;;;;;;5091073;28;20567;-74
2024/03/25 11:11:23;;;;;;;;;;;13.10;52.60;;;;;;5072322;28;20439;-74
2024/03/25 11:13:49;;;;;;;;;;;13.10;52.40;;;;;;5071980;28;19912;-74
2024/03/25 11:16:26;;;;;;;;;;;12.90;55.20;;;;;;5090575;28;19919;-74
2024/03/25 11:18:51;;;;;;;;;;;12.70;56.10;;;;;;5090305;28;19916;-74
2024/03/25 11:21:24;;;;;;;;;;;12.20;57.70;;;;;;5088528;28;20276;-73
2024/03/25 11:23:49;;;;;;;;;;;11.70;59.40;;;;;;5072234;28;19908;-73
2024/03/25 11:26:24;;;;;;;;;;;11.50;60.60;;;;;;5072248;28;19923;-74
2024/03/25 11:28:50;;;;;;;;;;;11.30;61.60;;;;;;5072531;28;19904;-74
2024/03/25 11:31:16;;;;;;;;;;;11.40;61.70;;;;;;5090331;28;20408;-73
2024/03/25 11:33:42;;;;;;;;;;;11.40;61.80;;;;;;5072100;28;19959;-74
2024/03/25 11:36:09;;;;;;;;;;;11.40;60.60;;;;;;5072014;28;19908;-73
2024/03/25 11:38:34;;;;;;;;;;;11.70;60.70;;;;;;5090253;28;19915;-74
2024/03/25 11:41:00;;;;;;;;;;;12.10;60.10;;;;;;5090077;28;19908;-74
2024/03/25 11:43:25;;;;;;;;;;;12.70;56.90;;;;;;5090088;28;19908;-74
2024/03/25 11:45:53;;;;;;;;;;;13.00;55.60;;;;;;5071859;28;20383;-74
2024/03/25 11:48:18;;;;;;;;;;;13.00;55.00;;;;;;5090455;28;19904;-74
2024/03/25 11:50:47;;;;;;;;;;;13.20;58.50;;;;;;5088725;28;19904;-74
2024/03/25 11:53:13;;;;;;;;;;;13.40;56.70;;;;;;5090174;28;19919;-75
2024/03/25 11:55:40;;;;;;;;;;;13.50;53.10;;;;;;5071838;28;19911;-74
2024/03/25 11:58:05;;;;;;;;;;;13.50;56.30;;;;;;5088178;28;19931;-75
2024/03/25 12:00:31;;;;;;;;;;;13.70;57.90;;;;;;5071808;28;20269;-74
2024/03/25 12:02:56;;;;;;;;;;;13.80;57.10;;;;;;5071793;28;19960;-74
2024/03/25 12:05:22;;;;;;;;;;;13.90;56.70;;;;;;5071859;28;19908;-74
2024/03/25 12:07:49;;;;;;;;;;;14.00;55.50;;;;;;5089918;28;19986;-74
2024/03/25 12:12:59;;;;;;;;;;;13.20;57.00;;;;;;5090098;28;19921;-75
2024/03/25 12:15:26;;;;;;;;;;;12.80;56.00;;;;;;5089734;28;19912;-74
2024/03/25 12:17:52;;;;;;;;;;;12.30;61.10;;;;;;5088417;28;19946;-75
2024/03/25 12:20:17;;;;;;;;;;;11.80;64.50;;;;;;5071832;28;19947;-75
2024/03/25 12:22:43;;;;;;;;;;;11.10;66.70;;;;;;5088413;28;20280;-75
2024/03/25 12:25:09;;;;;;;;;;;10.70;70.10;;;;;;5071414;28;19993;-73
2024/03/25 12:27:35;;;;;;;;;;;10.30;71.10;;;;;;5089830;28;20006;-75
2024/03/25 12:30:02;;;;;;;;;;;10.20;72.70;;;;;;5071571;28;19910;-75
2024/03/25 12:32:48;;;;;;;;;;;10.30;73.60;;;;;;5071507;28;19904;-74
2024/03/25 12:35:18;;;;;;;;;;;10.50;75.90;;;;;;5070799;28;19934;-74
2024/03/25 12:37:47;;;;;;;;;;;10.70;75.20;;;;;;5071626;28;19908;-74
2024/03/25 12:40:14;;;;;;;;;;;10.90;74.90;;;;;;5071507;28;19927;-74
2024/03/25 12:42:40;;;;;;;;;;;11.00;72.40;;;;;;5089463;28;19911;-76
2024/03/25 12:45:06;;;;;;;;;;;11.10;72.50;;;;;;5071409;28;19908;-75
2024/03/25 12:47:32;;;;;;;;;;;11.30;72.70;;;;;;5071355;28;20288;-74
2024/03/25 12:49:57;;;;;;;;;;;11.50;72.70;;;;;;5089554;28;19915;-73
2024/03/25 12:52:23;;;;;;;;;;;11.70;72.70;;;;;;5071351;28;19915;-75
2024/03/25 12:54:49;;;;;;;;;;;11.90;72.00;;;;;;5089404;28;20388;-74
2024/03/25 12:57:14;;;;;;;;;;;12.10;69.60;;;;;;5089316;28;19908;-74
2024/03/25 12:59:40;;;;;;;;;;;12.30;67.90;;;;;;5070923;28;20347;-74
2024/03/25 13:02:08;;;;;;;;;;;12.50;66.00;;;;;;5071196;28;20022;-75
2024/03/25 13:04:37;;;;;;;;;;;12.70;64.10;;;;;;5088055;28;20322;-74
2024/03/25 13:07:02;;;;;;;;;;;12.70;64.80;;;;;;5088066;28;19912;-74
2024/03/25 13:09:29;;;;;;;;;;;13.00;66.80;;;;;;5090605;28;19908;-73
2024/03/25 13:11:56;;;;;;;;;;;13.20;66.10;;;;;;5091286;28;19904;-74
2024/03/25 13:14:21;;;;;;;;;;;13.30;63.30;;;;;;5092589;28;19922;-74
2024/03/25 13:16:47;;;;;;;;;;;13.40;59.40;;;;;;5092976;28;19907;-74
2024/03/25 13:19:13;;;;;;;;;;;13.40;57.70;;;;;;5074523;28;19907;-73
2024/03/25 13:21:38;;;;;;;;;;;13.30;57.20;;;;;;5069196;28;19908;-73
2024/03/25 13:24:04;;;;;;;;;;;13.10;59.00;;;;;;5074752;28;19908;-73
2024/03/25 13:26:30;;;;;;;;;;;13.10;58.80;;;;;;5092890;28;19916;-73
2024/03/25 13:28:55;;;;;;;;;;;13.10;57.50;;;;;;5092325;28;19912;-73
2024/03/25 13:31:21;;;;;;;;;;;13.10;59.70;;;;;;5074370;28;20011;-73
2024/03/25 13:33:47;;;;;;;;;;;13.10;61.00;;;;;;5092434;28;20006;-75
2024/03/25 13:36:12;;;;;;;;;;;13.20;60.30;;;;;;5074462;28;19954;-73
2024/03/25 13:38:38;;;;;;;;;;;13.30;59.40;;;;;;5090817;28;19905;-73
2024/03/25 13:41:04;;;;;;;;;;;13.20;57.20;;;;;;5092155;28;19915;-74
2024/03/25 13:43:30;;;;;;;;;;;13.10;58.20;;;;;;5092228;28;19915;-74
2024/03/25 13:45:55;;;;;;;;;;;13.20;56.10;;;;;;5073690;28;19912;-73
2024/03/25 13:48:21;;;;;;;;;;;13.20;56.40;;;;;;5092290;28;19964;-74
2024/03/25 13:50:46;;;;;;;;;;;13.10;55.40;;;;;;5091421;28;19907;-74
2024/03/25 13:53:12;;;;;;;;;;;13.00;57.70;;;;;;5072902;28;20281;-74
2024/03/25 13:55:37;;;;;;;;;;;13.00;57.60;;;;;;5090609;28;19912;-74
2024/03/25 13:58:05;;;;;;;;;;;12.80;57.30;;;;;;5091640;28;19939;-74
2024/03/25 14:00:31;;;;;;;;;;;12.60;57.30;;;;;;5073337;28;19961;-74
2024/03/25 14:02:57;;;;;;;;;;;12.50;58.20;;;;;;5091635;28;19904;-74
2024/03/25 14:05:23;;;;;;;;;;;12.50;58.30;;;;;;5073511;28;19930;-73
2024/03/25 14:07:49;;;;;;;;;;;12.60;58.20;;;;;;5091677;28;20376;-74
2024/03/25 14:10:14;;;;;;;;;;;12.70;57.80;;;;;;5091654;28;19908;-74
2024/03/25 14:12:40;;;;;;;;;;;12.60;57.20;;;;;;5090547;28;20394;-74
2024/03/25 14:15:06;;;;;;;;;;;12.70;57.00;;;;;;5073173;28;20414;-75
2024/03/25 14:17:32;;;;;;;;;;;12.80;56.40;;;;;;5091560;28;20399;-75
2024/03/25 14:19:57;;;;;;;;;;;13.10;53.40;;;;;;5091587;28;19904;-73
2024/03/25 14:22:23;;;;;;;;;;;13.30;52.50;;;;;;5090692;28;20358;-74
2024/03/25 14:24:49;;;;;;;;;;;13.60;51.50;;;;;;5072856;28;19918;-74
2024/03/25 14:27:14;;;;;;;;;;;13.70;48.30;;;;;;5073534;28;19908;-74